Time;durP1;ratioP1;P1;durP2;ratioP2;P2;SDS_P1;SDS_P2;PMS_P1;PMS_P2;Temp;Humidity;BMP_temperature;BMP_pressure;BME280_temperature;BME280_humidity;BME280_pressure;Samples;Min_cycle;Max_cycle;Signal;HPM_P1;HPM_P2
2023/05/31 00:01:56;;;;;;;5.37;2.80;;;16.20;99.90;;;;;;5139108;27;20432;-48
2023/05/31 00:04:21;;;;;;;3.40;2.77;;;16.10;99.90;;;;;;5138432;27;20202;-50
2023/05/31 00:06:47;;;;;;;4.13;2.70;;;16.10;99.90;;;;;;5120490;27;20542;-49
2023/05/31 00:09:12;;;;;;;3.37;2.60;;;16.10;99.90;;;;;;5138516;27;20172;-48
2023/05/31 00:11:38;;;;;;;4.33;2.57;;;16.00;99.90;;;;;;5139363;27;20171;-53
2023/05/31 00:14:04;;;;;;;3.40;2.53;;;16.00;99.90;;;;;;5103105;27;20193;-50
2023/05/31 00:16:29;;;;;;;5.67;2.70;;;16.00;99.90;;;;;;5137444;27;20171;-52
2023/05/31 00:18:55;;;;;;;5.10;2.80;;;16.00;99.90;;;;;;5119758;27;20218;-48
2023/05/31 00:21:21;;;;;;;6.60;2.90;;;15.90;99.90;;;;;;5138571;27;20731;-51
2023/05/31 00:23:46;;;;;;;4.73;2.80;;;16.00;99.90;;;;;;5138422;27;20195;-49
2023/05/31 00:26:12;;;;;;;3.47;2.43;;;16.00;99.90;;;;;;5120781;27;20554;-50
2023/05/31 00:28:38;;;;;;;4.30;2.83;;;16.00;99.90;;;;;;5104052;27;20413;-50
2023/05/31 00:31:03;;;;;;;2.40;2.13;;;15.90;99.90;;;;;;5138547;27;20232;-48
2023/05/31 00:33:29;;;;;;;4.00;2.73;;;15.90;99.90;;;;;;5139048;27;20202;-49
2023/05/31 00:35:54;;;;;;;4.07;2.37;;;15.90;99.90;;;;;;5138838;27;20194;-48
2023/05/31 00:38:21;;;;;;;5.40;2.90;;;15.80;99.90;;;;;;5138895;27;20338;-49
2023/05/31 00:40:47;;;;;;;3.60;2.23;;;15.80;99.90;;;;;;5138774;27;20413;-49
2023/05/31 00:43:13;;;;;;;5.60;2.93;;;15.80;99.90;;;;;;5136884;27;20205;-53
2023/05/31 00:45:39;;;;;;;4.07;2.30;;;15.80;99.90;;;;;;5138092;27;20496;-49
2023/05/31 00:48:05;;;;;;;4.00;2.70;;;15.70;99.90;;;;;;5137275;27;20431;-49
2023/05/31 00:50:31;;;;;;;5.70;3.17;;;15.70;99.90;;;;;;5120125;27;20428;-50
2023/05/31 00:52:57;;;;;;;5.00;3.00;;;15.70;99.90;;;;;;5119799;27;20437;-48
2023/05/31 00:55:24;;;;;;;3.77;2.00;;;15.70;99.90;;;;;;5119531;27;20548;-52
2023/05/31 00:57:50;;;;;;;3.90;2.77;;;15.70;99.90;;;;;;5137772;27;20771;-48
2023/05/31 01:00:16;;;;;;;3.13;2.30;;;15.60;99.90;;;;;;5137860;27;20433;-49
2023/05/31 01:02:43;;;;;;;5.03;2.20;;;15.60;99.90;;;;;;5137083;27;20522;-52
2023/05/31 01:05:08;;;;;;;4.00;2.30;;;15.60;99.90;;;;;;5136285;27;20566;-49
2023/05/31 01:07:35;;;;;;;3.10;2.37;;;15.60;99.90;;;;;;5136350;27;20569;-50
2023/05/31 01:10:01;;;;;;;6.13;2.80;;;15.60;99.90;;;;;;5137660;27;20250;-47
2023/05/31 01:12:45;;;;;;;4.80;2.93;;;15.50;99.90;;;;;;5137547;27;20427;-49
2023/05/31 01:15:14;;;;;;;2.83;2.40;;;15.50;99.90;;;;;;5136915;27;20456;-49
2023/05/31 01:18:00;;;;;;;3.20;2.50;;;15.50;99.90;;;;;;5137773;27;20435;-48
2023/05/31 01:20:35;;;;;;;4.70;2.80;;;15.50;99.90;;;;;;5137467;27;20435;-49
2023/05/31 01:23:14;;;;;;;4.00;2.87;;;15.50;99.90;;;;;;5119319;27;20620;-50
2023/05/31 01:25:57;;;;;;;4.00;2.23;;;15.40;99.90;;;;;;5118922;27;20460;-51
2023/05/31 01:28:25;;;;;;;6.33;3.17;;;15.40;99.90;;;;;;5137408;27;20729;-50
2023/05/31 01:30:52;;;;;;;3.13;2.53;;;15.50;99.90;;;;;;5137571;27;20791;-50
2023/05/31 01:33:18;;;;;;;5.20;2.43;;;15.50;99.90;;;;;;5119236;27;20433;-49
2023/05/31 01:35:43;;;;;;;5.20;2.77;;;15.40;99.90;;;;;;5119360;28;20428;-48
2023/05/31 01:38:09;;;;;;;5.30;2.30;;;15.50;99.90;;;;;;5137973;28;20463;-48
2023/05/31 01:40:35;;;;;;;3.73;2.67;;;15.50;99.90;;;;;;5137835;28;20179;-50
2023/05/31 01:43:02;;;;;;;3.13;2.70;;;15.40;99.90;;;;;;5118747;28;20194;-49
2023/05/31 01:45:28;;;;;;;2.80;2.50;;;15.40;99.90;;;;;;5119370;28;20601;-49
2023/05/31 01:47:59;;;;;;;2.90;2.60;;;15.40;99.90;;;;;;5119692;28;20525;-50
2023/05/31 01:50:25;;;;;;;3.93;2.53;;;15.40;99.90;;;;;;5136935;28;20424;-48
2023/05/31 01:52:51;;;;;;;3.13;2.57;;;15.30;99.90;;;;;;5137038;27;20861;-48
2023/05/31 01:55:17;;;;;;;4.57;2.77;;;15.30;99.90;;;;;;5136145;28;20781;-48
2023/05/31 01:57:43;;;;;;;7.13;2.83;;;15.30;99.90;;;;;;5118226;28;20549;-49
2023/05/31 02:00:12;;;;;;;4.57;3.03;;;15.30;99.90;;;;;;5103980;27;20187;-48
2023/05/31 02:02:41;;;;;;;3.30;2.47;;;15.20;99.90;;;;;;5123302;27;20497;-48
2023/05/31 02:05:08;;;;;;;3.70;2.47;;;15.20;99.90;;;;;;5141271;27;20492;-49
2023/05/31 02:07:37;;;;;;;4.00;2.67;;;15.20;99.90;;;;;;5139911;27;20420;-46
2023/05/31 02:10:03;;;;;;;3.77;3.07;;;15.20;99.90;;;;;;5141228;27;20686;-49
2023/05/31 02:12:29;;;;;;;5.63;2.83;;;15.20;99.90;;;;;;5140048;27;20942;-48
2023/05/31 02:14:55;;;;;;;4.30;2.53;;;15.10;99.90;;;;;;5139851;27;20810;-48
2023/05/31 02:17:24;;;;;;;5.00;2.33;;;15.10;99.90;;;;;;5139889;27;20441;-52
2023/05/31 02:19:53;;;;;;;3.03;2.37;;;15.10;99.90;;;;;;5138743;27;20263;-52
2023/05/31 02:22:22;;;;;;;4.47;2.73;;;15.10;99.90;;;;;;5138729;27;20448;-48
2023/05/31 02:24:47;;;;;;;3.17;2.77;;;15.10;99.90;;;;;;5139090;27;20579;-48
2023/05/31 02:27:14;;;;;;;7.07;3.13;;;15.00;99.90;;;;;;5139199;27;20519;-47
2023/05/31 02:29:39;;;;;;;6.67;3.03;;;15.00;99.90;;;;;;5121623;27;20182;-48
2023/05/31 02:32:05;;;;;;;5.00;2.73;;;15.00;99.90;;;;;;5140855;27;20881;-51
2023/05/31 02:34:31;;;;;;;3.07;2.23;;;14.90;99.90;;;;;;5139759;27;20202;-47
2023/05/31 02:36:57;;;;;;;2.63;2.40;;;14.90;99.90;;;;;;5140817;27;20225;-48
2023/05/31 02:39:24;;;;;;;3.03;2.23;;;14.90;99.90;;;;;;5138691;27;20710;-51
2023/05/31 02:41:50;;;;;;;3.53;2.40;;;14.90;99.90;;;;;;5140302;27;20428;-48
2023/05/31 02:44:16;;;;;;;5.17;3.43;;;14.80;99.90;;;;;;5140352;27;20487;-47
2023/05/31 02:46:41;;;;;;;5.00;2.30;;;14.80;99.90;;;;;;5140630;27;20220;-46
2023/05/31 02:49:07;;;;;;;3.73;2.33;;;14.80;99.90;;;;;;5140383;27;20171;-48
2023/05/31 02:52:06;;;;;;;3.13;2.67;;;14.80;99.90;;;;;;5140139;27;20549;-48
2023/05/31 02:54:32;;;;;;;4.10;2.30;;;14.80;99.90;;;;;;5139450;27;20238;-49
2023/05/31 02:56:59;;;;;;;3.20;2.80;;;14.80;99.90;;;;;;5140255;27;20466;-47
2023/05/31 02:59:25;;;;;;;4.03;2.57;;;14.80;99.90;;;;;;5140417;27;20190;-49
2023/05/31 03:01:51;;;;;;;3.97;2.80;;;14.80;99.90;;;;;;5139086;27;20531;-48
2023/05/31 03:04:16;;;;;;;5.63;2.93;;;14.70;99.90;;;;;;5139811;27;20456;-49
2023/05/31 03:06:42;;;;;;;5.50;2.57;;;14.70;99.90;;;;;;5139624;27;20750;-48
2023/05/31 03:09:08;;;;;;;7.70;2.70;;;14.70;99.90;;;;;;5139839;27;20179;-48
2023/05/31 03:11:34;;;;;;;5.10;2.83;;;14.60;99.90;;;;;;5138951;27;20183;-48
2023/05/31 03:13:59;;;;;;;3.10;2.23;;;14.60;99.90;;;;;;5139491;27;20539;-48
2023/05/31 03:16:25;;;;;;;6.13;3.20;;;14.60;99.90;;;;;;5138776;27;20552;-48
2023/05/31 03:18:51;;;;;;;7.90;3.63;;;14.60;99.90;;;;;;5138051;27;20179;-48
2023/05/31 03:21:17;;;;;;;4.10;2.73;;;14.60;99.90;;;;;;5137901;27;20199;-49
2023/05/31 03:23:42;;;;;;;3.40;2.50;;;14.60;99.90;;;;;;5138139;27;20591;-49
2023/05/31 03:26:08;;;;;;;4.20;2.67;;;14.60;99.90;;;;;;5137585;27;20188;-48
2023/05/31 03:28:33;;;;;;;3.03;2.53;;;14.60;99.90;;;;;;5137092;27;20437;-47
2023/05/31 03:30:59;;;;;;;4.43;2.87;;;14.60;99.90;;;;;;5137331;27;20179;-48
2023/05/31 03:33:25;;;;;;;4.73;2.80;;;14.60;99.90;;;;;;5136515;27;20544;-50
2023/05/31 03:35:50;;;;;;;6.37;2.40;;;14.60;99.90;;;;;;5137151;27;20203;-51
2023/05/31 03:38:16;;;;;;;5.20;3.40;;;14.60;99.90;;;;;;5137949;27;20239;-48
2023/05/31 03:40:41;;;;;;;4.83;2.47;;;14.60;99.90;;;;;;5138521;27;20210;-49
2023/05/31 03:43:07;;;;;;;4.93;2.80;;;14.60;99.90;;;;;;5137485;27;20536;-47
2023/05/31 03:45:32;;;;;;;3.70;2.80;;;14.60;99.90;;;;;;5138998;27;20217;-50
2023/05/31 03:47:58;;;;;;;3.23;2.70;;;14.60;99.90;;;;;;5137823;27;20247;-47
2023/05/31 03:50:24;;;;;;;3.80;2.50;;;14.50;99.90;;;;;;5138475;27;20556;-49
2023/05/31 03:52:49;;;;;;;3.93;2.77;;;14.50;99.90;;;;;;5138619;27;20323;-50
2023/05/31 03:55:15;;;;;;;4.00;2.93;;;14.50;99.90;;;;;;5138655;27;20643;-48
2023/05/31 03:57:40;;;;;;;4.07;2.63;;;14.50;99.90;;;;;;5138639;27;20194;-49
2023/05/31 04:00:07;;;;;;;4.73;3.10;;;14.50;99.90;;;;;;5138432;27;20190;-49
2023/05/31 04:02:32;;;;;;;4.33;2.97;;;14.50;99.90;;;;;;5137696;27;20194;-49
2023/05/31 04:04:58;;;;;;;4.03;2.77;;;14.50;99.90;;;;;;5137392;27;20760;-48
2023/05/31 04:07:23;;;;;;;4.20;2.97;;;14.50;99.90;;;;;;5119673;27;20183;-48
2023/05/31 04:09:49;;;;;;;6.13;2.93;;;14.50;99.90;;;;;;5137634;27;20257;-47
2023/05/31 04:12:15;;;;;;;3.50;2.93;;;14.50;99.90;;;;;;5137684;27;20176;-48
2023/05/31 04:14:40;;;;;;;3.23;2.40;;;14.50;99.90;;;;;;5138016;27;20270;-47
2023/05/31 04:17:06;;;;;;;3.30;2.20;;;14.60;99.90;;;;;;5136760;27;20197;-49
2023/05/31 04:19:31;;;;;;;4.23;2.00;;;14.60;99.90;;;;;;5135397;27;20198;-49
2023/05/31 04:21:57;;;;;;;3.70;2.90;;;14.60;99.90;;;;;;5132369;27;20245;-49
2023/05/31 04:24:23;;;;;;;3.83;2.90;;;14.60;99.90;;;;;;5130788;27;20222;-49
2023/05/31 04:26:48;;;;;;;4.60;2.97;;;14.60;99.90;;;;;;5134571;27;20548;-48
2023/05/31 04:29:14;;;;;;;3.50;2.70;;;14.60;99.90;;;;;;5133546;27;20548;-47
2023/05/31 04:31:40;;;;;;;4.57;2.70;;;14.60;99.90;;;;;;5132725;27;20548;-49
2023/05/31 04:34:06;;;;;;;4.63;3.10;;;14.60;99.90;;;;;;5134447;27;20539;-48
2023/05/31 04:36:35;;;;;;;4.30;2.77;;;14.70;99.90;;;;;;5136482;27;20504;-47
2023/05/31 04:39:05;;;;;;;5.90;2.73;;;14.80;99.90;;;;;;5135449;27;20420;-48
2023/05/31 04:41:31;;;;;;;3.67;2.70;;;14.80;99.90;;;;;;5134833;27;20796;-48
2023/05/31 04:43:57;;;;;;;3.60;2.37;;;14.90;99.90;;;;;;5134575;27;20560;-47
2023/05/31 04:46:24;;;;;;;3.70;2.50;;;14.90;99.90;;;;;;5133442;27;20213;-47
2023/05/31 04:48:50;;;;;;;5.03;2.53;;;14.90;99.90;;;;;;5135024;27;20605;-48
2023/05/31 04:51:18;;;;;;;5.20;2.50;;;15.00;99.90;;;;;;5135196;27;20511;-47
2023/05/31 04:53:45;;;;;;;3.57;2.57;;;15.10;99.90;;;;;;5135602;27;20179;-48
2023/05/31 04:56:12;;;;;;;2.67;2.10;;;15.10;99.90;;;;;;5115617;27;20663;-49
2023/05/31 04:58:38;;;;;;;4.27;2.70;;;15.10;99.90;;;;;;5135588;27;20416;-49
2023/05/31 05:01:04;;;;;;;3.17;2.30;;;15.10;99.90;;;;;;5117226;27;20496;-47
2023/05/31 05:03:29;;;;;;;5.87;2.23;;;15.20;99.90;;;;;;5101023;27;20464;-47
2023/05/31 05:05:56;;;;;;;3.63;2.70;;;15.30;99.90;;;;;;5134641;27;20592;-47
2023/05/31 05:08:22;;;;;;;6.10;2.67;;;15.40;99.90;;;;;;5133780;27;20246;-50
2023/05/31 05:10:48;;;;;;;2.60;2.00;;;15.40;99.90;;;;;;5135890;27;20417;-49
2023/05/31 05:13:16;;;;;;;4.33;2.77;;;15.40;99.90;;;;;;5135017;27;20420;-47
2023/05/31 05:15:41;;;;;;;4.50;2.63;;;15.50;99.90;;;;;;5134800;27;20827;-49
2023/05/31 05:18:07;;;;;;;5.60;3.67;;;15.60;99.90;;;;;;5134273;27;20435;-48
2023/05/31 05:20:33;;;;;;;4.17;2.37;;;15.60;99.90;;;;;;5132640;27;20186;-49
2023/05/31 05:23:02;;;;;;;4.27;2.70;;;15.70;99.90;;;;;;5114393;27;20207;-48
2023/05/31 05:25:28;;;;;;;4.60;2.40;;;15.80;99.90;;;;;;5135426;27;20604;-52
2023/05/31 05:27:53;;;;;;;4.33;2.10;;;15.80;99.90;;;;;;5118247;27;20436;-52
2023/05/31 05:30:19;;;;;;;4.53;2.40;;;16.00;99.90;;;;;;5118106;28;20331;-51
2023/05/31 05:32:44;;;;;;;4.97;2.90;;;16.00;99.90;;;;;;5117019;28;20194;-47
2023/05/31 05:35:10;;;;;;;2.70;2.50;;;16.20;99.90;;;;;;5133624;27;20230;-48
2023/05/31 05:37:36;;;;;;;4.60;2.83;;;16.30;99.90;;;;;;5114846;27;20179;-48
2023/05/31 05:40:01;;;;;;;4.90;2.70;;;16.30;99.90;;;;;;5132606;28;20175;-47
2023/05/31 05:42:28;;;;;;;4.37;2.63;;;16.40;99.90;;;;;;5112682;28;20467;-49
2023/05/31 05:44:53;;;;;;;6.30;2.40;;;16.50;99.90;;;;;;5130286;28;20206;-49
2023/05/31 05:47:19;;;;;;;5.17;2.63;;;16.50;1.00;;;;;;5130442;28;21031;-49
2023/05/31 05:49:44;;;;;;;4.43;2.60;;;16.60;1.00;;;;;;5132848;27;20498;-48
2023/05/31 05:52:10;;;;;;;4.00;2.70;;;16.70;1.00;;;;;;5133595;28;20373;-49
2023/05/31 05:54:36;;;;;;;3.97;2.50;;;16.80;1.00;;;;;;5134357;28;20508;-49
2023/05/31 05:57:03;;;;;;;4.60;2.50;;;16.90;1.00;;;;;;5134076;28;20187;-52
2023/05/31 05:59:28;;;;;;;4.10;2.53;;;16.90;1.00;;;;;;5132604;28;20464;-50
2023/05/31 06:01:54;;;;;;;5.50;2.63;;;17.00;1.00;;;;;;5134632;28;20553;-47
2023/05/31 06:04:20;;;;;;;3.53;2.70;;;17.10;1.00;;;;;;5135522;28;20195;-49
2023/05/31 06:06:45;;;;;;;4.07;2.93;;;17.20;1.00;;;;;;5133437;28;20425;-49
2023/05/31 06:09:11;;;;;;;5.43;3.30;;;17.30;1.00;;;;;;5132370;28;20175;-49
2023/05/31 06:11:37;;;;;;;4.43;2.63;;;17.40;1.00;;;;;;5134077;28;20167;-50
2023/05/31 06:14:03;;;;;;;4.47;2.87;;;17.50;1.00;;;;;;5134232;28;20204;-50
2023/05/31 06:16:28;;;;;;;4.77;3.10;;;17.60;1.00;;;;;;5134197;28;20568;-48
2023/05/31 06:18:54;;;;;;;6.70;3.17;;;17.80;1.00;;;;;;5133236;28;20420;-49
2023/05/31 06:21:19;;;;;;;3.73;2.57;;;17.90;1.00;;;;;;5133827;28;20175;-50
2023/05/31 06:23:45;;;;;;;3.30;2.57;;;18.00;1.00;;;;;;5135427;28;20176;-50
2023/05/31 06:26:11;;;;;;;4.90;2.47;;;18.00;1.00;;;;;;5135114;28;20198;-50
2023/05/31 06:28:36;;;;;;;5.07;2.97;;;18.10;1.00;;;;;;5134278;28;20417;-49
2023/05/31 06:31:03;;;;;;;6.33;3.30;;;18.30;1.00;;;;;;5136190;28;20195;-50
2023/05/31 06:33:28;;;;;;;4.43;3.37;;;18.40;1.00;;;;;;5117072;28;20485;-50
2023/05/31 06:35:54;;;;;;;3.53;2.73;;;18.60;1.00;;;;;;5132531;28;20432;-49
2023/05/31 06:38:21;;;;;;;5.37;3.37;;;18.70;1.00;;;;;;5129815;28;20172;-48
2023/05/31 06:40:47;;;;;;;4.43;2.80;;;18.80;1.00;;;;;;5131225;28;20175;-50
2023/05/31 06:43:13;;;;;;;6.37;2.93;;;18.90;1.00;;;;;;5130889;28;20472;-49
2023/05/31 06:45:41;;;;;;;5.93;3.23;;;19.00;1.00;;;;;;5132760;27;20733;-50
2023/05/31 06:48:08;;;;;;;3.93;2.97;;;19.10;1.00;;;;;;5136796;27;20803;-49
2023/05/31 06:50:34;;;;;;;3.13;2.83;;;19.10;1.00;;;;;;5136371;27;20424;-49
2023/05/31 06:52:59;;;;;;;7.13;3.83;;;19.00;1.00;;;;;;5136673;27;20424;-49
2023/05/31 06:55:25;;;;;;;5.00;2.53;;;19.00;1.00;;;;;;5136732;27;20215;-49
2023/05/31 06:57:51;;;;;;;7.37;3.50;;;19.10;1.00;;;;;;5138164;27;20191;-49
2023/05/31 07:00:17;;;;;;;4.17;2.73;;;19.20;1.00;;;;;;5138191;27;20188;-49
2023/05/31 07:02:43;;;;;;;5.10;3.70;;;19.30;1.00;;;;;;5136939;27;20183;-49
2023/05/31 07:05:09;;;;;;;4.30;2.80;;;19.30;1.00;;;;;;5136562;27;20468;-48
2023/05/31 07:07:34;;;;;;;4.57;2.93;;;19.50;1.00;;;;;;5136706;27;20166;-50
2023/05/31 07:10:00;;;;;;;6.30;3.30;;;19.70;1.00;;;;;;5138335;27;20243;-48
2023/05/31 07:12:26;;;;;;;4.80;2.70;;;19.80;1.00;;;;;;5136077;27;20269;-49
2023/05/31 07:14:52;;;;;;;4.93;3.07;;;19.90;1.00;;;;;;5135136;27;20524;-50
2023/05/31 07:17:17;;;;;;;5.50;3.27;;;20.00;1.00;;;;;;5138061;27;20179;-50
2023/05/31 07:19:47;;;;;;;3.70;2.90;;;20.10;1.00;;;;;;5136259;27;20174;-50
2023/05/31 07:22:14;;;;;;;5.83;2.67;;;20.10;1.00;;;;;;5119782;27;20206;-51
2023/05/31 07:24:40;;;;;;;6.30;3.30;;;20.30;1.00;;;;;;5135125;27;20759;-49
2023/05/31 07:27:07;;;;;;;4.70;3.30;;;20.40;1.00;;;;;;5134224;27;20680;-49
2023/05/31 07:29:33;;;;;;;6.30;3.70;;;20.50;1.00;;;;;;5133004;27;20381;-48
2023/05/31 07:31:58;;;;;;;6.30;3.13;;;20.70;1.00;;;;;;5135643;27;21003;-51
2023/05/31 07:34:24;;;;;;;3.00;2.60;;;21.00;1.00;;;;;;5119527;27;20167;-51
2023/05/31 07:36:49;;;;;;;7.33;3.10;;;21.00;1.00;;;;;;5136520;27;20198;-49
2023/05/31 07:39:15;;;;;;;12.33;3.20;;;21.10;1.00;;;;;;5135872;27;20191;-49
2023/05/31 07:41:42;;;;;;;6.50;3.87;;;21.30;1.00;;;;;;5136094;27;20258;-49
2023/05/31 07:44:08;;;;;;;6.30;3.10;;;21.30;1.00;;;;;;5132789;27;20430;-48
2023/05/31 07:46:35;;;;;;;3.83;2.80;;;21.40;1.00;;;;;;5132059;27;20443;-51
2023/05/31 07:49:02;;;;;;;5.37;3.03;;;21.50;1.00;;;;;;5116403;27;20420;-48
2023/05/31 07:51:31;;;;;;;7.53;4.00;;;21.50;1.00;;;;;;5099806;27;20437;-50
2023/05/31 07:53:57;;;;;;;6.63;3.30;;;21.60;1.00;;;;;;5136494;27;20473;-50
2023/05/31 07:56:23;;;;;;;4.90;3.00;;;21.80;1.00;;;;;;5136190;27;20413;-49
2023/05/31 07:58:49;;;;;;;4.87;3.30;;;21.90;1.00;;;;;;5136871;27;20549;-50
2023/05/31 08:01:15;;;;;;;6.57;3.67;;;22.00;1.00;;;;;;5135259;27;20431;-49
2023/05/31 08:03:41;;;;;;;4.20;3.30;;;22.10;1.00;;;;;;5135063;27;20183;-53
2023/05/31 08:06:07;;;;;;;6.87;4.07;;;22.30;1.00;;;;;;5100559;27;20210;-50
2023/05/31 08:08:33;;;;;;;5.03;3.60;;;22.50;1.00;;;;;;5135815;27;20420;-49
2023/05/31 08:11:00;;;;;;;8.73;3.67;;;22.70;1.00;;;;;;5137985;27;21168;-51
2023/05/31 08:13:29;;;;;;;7.37;3.63;;;22.80;1.00;;;;;;5118623;27;20890;-50
2023/05/31 08:15:55;;;;;;;6.57;3.63;;;23.10;1.00;;;;;;5118027;27;20535;-50
2023/05/31 08:18:21;;;;;;;12.97;4.80;;;23.20;1.00;;;;;;5135407;27;20763;-49
2023/05/31 08:20:47;;;;;;;7.30;3.63;;;23.10;1.00;;;;;;5133917;27;20495;-50
2023/05/31 08:23:17;;;;;;;6.83;3.47;;;23.10;1.00;;;;;;5114147;27;20708;-50
2023/05/31 08:25:43;;;;;;;4.87;2.93;;;23.20;1.00;;;;;;5130879;27;20861;-49
2023/05/31 08:28:09;;;;;;;5.23;3.20;;;23.10;1.00;;;;;;5133180;27;20464;-48
2023/05/31 08:30:34;;;;;;;4.30;3.30;;;23.20;1.00;;;;;;5115506;27;20587;-50
2023/05/31 08:33:01;;;;;;;5.87;3.40;;;23.30;1.00;;;;;;5132792;27;20183;-52
2023/05/31 08:35:26;;;;;;;9.27;3.20;;;23.50;1.00;;;;;;5098523;27;20437;-49
2023/05/31 08:37:52;;;;;;;3.40;2.97;;;23.50;1.00;;;;;;5134076;27;20528;-47
2023/05/31 08:40:18;;;;;;;6.33;3.90;;;23.40;1.00;;;;;;5133707;27;20171;-50
2023/05/31 08:42:51;;;;;;;5.73;3.60;;;23.20;1.00;;;;;;5133923;27;20175;-48
2023/05/31 08:45:18;;;;;;;4.17;3.23;;;23.20;1.00;;;;;;5116610;27;20572;-57
2023/05/31 08:47:46;;;;;;;7.30;3.47;;;23.00;1.00;;;;;;5116153;27;20443;-58
2023/05/31 08:50:12;;;;;;;7.47;3.70;;;23.20;1.00;;;;;;5100499;27;20865;-57
2023/05/31 08:52:38;;;;;;;6.73;3.70;;;23.50;1.00;;;;;;5135221;27;20535;-58
2023/05/31 08:55:04;;;;;;;4.00;3.13;;;23.70;1.00;;;;;;5118565;27;20221;-58
2023/05/31 08:57:31;;;;;;;4.80;3.17;;;24.00;1.00;;;;;;5136442;27;20760;-57
2023/05/31 08:59:58;;;;;;;5.80;3.83;;;24.10;1.00;;;;;;5134726;27;20432;-58
2023/05/31 09:02:25;;;;;;;5.50;3.90;;;24.30;1.00;;;;;;5116778;27;20409;-58
2023/05/31 09:04:51;;;;;;;8.10;3.20;;;24.50;1.00;;;;;;5135214;27;20500;-57
2023/05/31 09:07:17;;;;;;;5.83;2.93;;;24.50;1.00;;;;;;5115830;27;20803;-57
2023/05/31 09:09:43;;;;;;;6.90;3.23;;;24.60;1.00;;;;;;5132968;27;20460;-60
2023/05/31 09:12:08;;;;;;;5.00;3.77;;;24.80;1.00;;;;;;5134797;27;20455;-58
2023/05/31 09:14:34;;;;;;;4.00;3.23;;;25.20;1.00;;;;;;5134735;27;20192;-58
2023/05/31 09:17:00;;;;;;;9.77;3.97;;;25.60;1.00;;;;;;5133904;27;20173;-57
2023/05/31 09:19:26;;;;;;;7.50;3.70;;;25.90;1.00;;;;;;5135376;27;20186;-58
2023/05/31 09:21:52;;;;;;;6.00;4.20;;;26.00;1.00;;;;;;5099494;27;20463;-57
2023/05/31 09:24:19;;;;;;;6.13;4.23;;;25.80;1.00;;;;;;5116669;27;20228;-58
2023/05/31 09:26:49;;;;;;;4.97;3.57;;;25.90;1.00;;;;;;5136383;27;20400;-54
2023/05/31 09:29:16;;;;;;;5.23;3.47;;;26.20;1.00;;;;;;5135834;27;20833;-57
2023/05/31 09:31:42;;;;;;;6.60;3.40;;;26.20;1.00;;;;;;5117346;27;20436;-57
2023/05/31 09:34:26;;;;;;;6.00;3.30;;;26.10;1.00;;;;;;5135966;27;20435;-59
2023/05/31 09:36:52;;;;;;;4.60;3.67;;;26.00;1.00;;;;;;5117258;27;20429;-57
2023/05/31 09:39:19;;;;;;;4.60;3.40;;;26.00;1.00;;;;;;5136080;27;20433;-58
2023/05/31 09:41:49;;;;;;;4.10;3.30;;;26.00;1.00;;;;;;5134671;28;20413;-56
2023/05/31 09:44:15;;;;;;;9.60;4.00;;;26.20;1.00;;;;;;5133476;28;20448;-58
2023/05/31 09:46:41;;;;;;;7.90;4.20;;;26.40;1.00;;;;;;5115338;28;20436;-55
2023/05/31 09:49:09;;;;;;;6.17;4.13;;;26.50;1.00;;;;;;5132911;28;20626;-59
2023/05/31 09:51:35;;;;;;;9.93;4.63;;;26.70;1.00;;;;;;5133169;28;20762;-58
2023/05/31 09:54:07;;;;;;;5.07;3.47;;;26.60;1.00;;;;;;5114239;28;20758;-57
2023/05/31 09:56:36;;;;;;;6.30;4.17;;;26.70;1.00;;;;;;5114848;28;20408;-58
2023/05/31 09:59:03;;;;;;;5.97;3.60;;;27.10;1.00;;;;;;5133881;28;20420;-57
2023/05/31 10:01:30;;;;;;;3.77;3.37;;;27.40;1.00;;;;;;5134595;28;20838;-56
2023/05/31 10:03:58;;;;;;;7.90;3.63;;;27.70;1.00;;;;;;5116754;28;20431;-57
2023/05/31 10:06:25;;;;;;;4.33;3.50;;;28.20;1.00;;;;;;5135422;27;20484;-59
2023/05/31 10:08:51;;;;;;;5.53;2.70;;;28.40;1.00;;;;;;5135981;28;20407;-58
2023/05/31 10:11:19;;;;;;;5.10;3.00;;;28.50;1.00;;;;;;5135459;28;20821;-57
2023/05/31 10:13:47;;;;;;;5.70;3.80;;;28.60;1.00;;;;;;5116795;28;20225;-58
2023/05/31 10:16:15;;;;;;;6.63;3.80;;;28.70;1.00;;;;;;5133951;28;20432;-56
2023/05/31 10:18:46;;;;;;;3.70;3.30;;;28.40;1.00;;;;;;5135140;28;20424;-58
2023/05/31 10:21:25;;;;;;;5.23;3.33;;;27.70;1.00;;;;;;5119260;27;20424;-55
2023/05/31 10:24:11;;;;;;;3.30;3.00;;;27.80;1.00;;;;;;5136749;27;20412;-56
2023/05/31 10:26:56;;;;;;;4.10;3.63;;;28.00;1.00;;;;;;5116095;27;20821;-57
2023/05/31 10:29:23;;;;;;;4.07;3.57;;;27.90;1.00;;;;;;5137643;27;20420;-57
2023/05/31 10:31:51;;;;;;;4.60;3.20;;;27.80;1.00;;;;;;5117290;27;20463;-59
2023/05/31 10:34:25;;;;;;;5.17;3.20;;;27.30;1.00;;;;;;5136239;27;20570;-57
2023/05/31 10:36:52;;;;;;;4.63;3.30;;;27.00;1.00;;;;;;5133683;27;20696;-61
2023/05/31 10:39:36;;;;;;;5.13;3.17;;;27.30;1.00;;;;;;5135422;27;20695;-59
2023/05/31 10:42:38;;;;;;;4.63;3.70;;;27.80;1.00;;;;;;5119377;27;20743;-59
2023/05/31 10:45:21;;;;;;;4.90;3.30;;;28.20;1.00;;;;;;5118815;27;20883;-56
2023/05/31 10:47:53;;;;;;;4.50;3.70;;;28.40;1.00;;;;;;5138334;27;20404;-58
2023/05/31 10:50:20;;;;;;;5.77;3.57;;;28.80;1.00;;;;;;5138339;27;20405;-59
2023/05/31 10:52:52;;;;;;;3.63;3.30;;;29.20;1.00;;;;;;5137673;27;20427;-58
2023/05/31 10:55:22;;;;;;;6.43;4.10;;;29.20;1.00;;;;;;5120370;27;20468;-59
2023/05/31 10:57:55;;;;;;;6.53;4.07;;;29.30;1.00;;;;;;5138076;27;20424;-59
2023/05/31 11:00:24;;;;;;;10.37;4.07;;;29.70;1.00;;;;;;5138850;27;20531;-58
2023/05/31 11:02:51;;;;;;;5.93;3.10;;;29.80;1.00;;;;;;5137495;27;20679;-58
2023/05/31 11:05:21;;;;;;;5.33;3.53;;;30.10;1.00;;;;;;5136408;27;20459;-59
2023/05/31 11:07:48;;;;;;;6.50;4.50;;;30.20;1.00;;;;;;5134745;27;20496;-57
2023/05/31 11:10:28;;;;;;;3.77;3.27;;;30.30;1.00;;;;;;5136642;27;20448;-59
2023/05/31 11:13:02;;;;;;;6.17;3.50;;;30.60;1.00;;;;;;5135740;27;20433;-57
2023/05/31 11:15:41;;;;;;;5.07;3.60;;;30.90;1.00;;;;;;5135679;27;20395;-59
2023/05/31 11:18:15;;;;;;;5.00;3.87;;;31.20;1.00;;;;;;5135702;27;20531;-57
2023/05/31 11:20:41;;;;;;;4.70;2.93;;;30.90;1.00;;;;;;5115268;27;20473;-59
2023/05/31 11:23:19;;;;;;;5.20;3.20;;;31.00;1.00;;;;;;5136628;27;20388;-59
2023/05/31 11:26:14;;;;;;;6.63;3.90;;;31.10;1.00;;;;;;5135851;27;20478;-57
2023/05/31 11:29:01;;;;;;;4.77;3.40;;;31.10;1.00;;;;;;5132443;27;20475;-58
2023/05/31 11:31:55;;;;;;;5.20;3.50;;;31.00;1.00;;;;;;5115672;27;20468;-59
2023/05/31 11:34:29;;;;;;;7.47;4.10;;;31.10;1.00;;;;;;5136404;27;20538;-59
2023/05/31 11:37:00;;;;;;;5.67;3.20;;;31.10;1.00;;;;;;5137249;27;20424;-59
2023/05/31 11:39:26;;;;;;;4.43;3.40;;;31.40;1.00;;;;;;5133729;27;20413;-58
2023/05/31 11:41:53;;;;;;;5.27;3.53;;;31.40;1.00;;;;;;5133756;27;20383;-59
2023/05/31 11:44:28;;;;;;;4.10;3.30;;;30.90;1.00;;;;;;5136164;27;20438;-58
2023/05/31 11:47:01;;;;;;;5.47;3.57;;;30.40;1.00;;;;;;5135218;27;20399;-59
2023/05/31 11:49:27;;;;;;;6.70;3.13;;;30.70;1.00;;;;;;5136242;27;20422;-58
2023/05/31 11:51:56;;;;;;;5.70;3.10;;;31.30;1.00;;;;;;5122227;27;20860;-59
2023/05/31 11:54:29;;;;;;;4.90;3.03;;;31.50;1.00;;;;;;5116139;28;20869;-59
2023/05/31 11:56:58;;;;;;;4.63;3.97;;;31.70;1.00;;;;;;5114822;28;20430;-58
2023/05/31 11:59:27;;;;;;;4.13;3.63;;;32.10;1.00;;;;;;5116043;28;20400;-59
2023/05/31 12:01:58;;;;;;;3.80;3.10;;;32.30;1.00;;;;;;5114034;28;20490;-58
2023/05/31 12:04:31;;;;;;;5.13;3.00;;;32.40;1.00;;;;;;5116298;28;20447;-58
2023/05/31 12:06:57;;;;;;;5.60;3.10;;;32.20;1.00;;;;;;5097015;28;20415;-57
2023/05/31 12:09:26;;;;;;;3.90;3.53;;;31.90;1.00;;;;;;5095975;28;20426;-57
2023/05/31 12:11:53;;;;;;;4.80;3.33;;;31.90;1.00;;;;;;5116159;28;20274;-58
2023/05/31 12:14:19;;;;;;;6.13;3.57;;;31.90;1.00;;;;;;5116089;28;20658;-59
2023/05/31 12:16:49;;;;;;;4.97;3.60;;;32.30;1.00;;;;;;5114125;28;20432;-60
2023/05/31 12:19:15;;;;;;;4.80;3.63;;;32.60;1.00;;;;;;5115003;28;20184;-58
2023/05/31 12:21:41;;;;;;;3.83;3.20;;;32.60;1.00;;;;;;5112624;28;20444;-58
2023/05/31 12:24:15;;;;;;;6.30;3.43;;;32.30;1.00;;;;;;5114093;28;20408;-58
2023/05/31 12:26:43;;;;;;;5.70;3.70;;;32.40;1.00;;;;;;5114552;28;20392;-56
2023/05/31 12:29:10;;;;;;;8.70;3.43;;;32.70;1.00;;;;;;5097120;28;20475;-57
2023/05/31 12:31:37;;;;;;;3.40;3.10;;;32.60;1.00;;;;;;5097733;28;20648;-58
2023/05/31 12:34:06;;;;;;;5.47;3.83;;;32.60;1.00;;;;;;5077212;28;20852;-57
2023/05/31 12:36:39;;;;;;;3.40;3.10;;;32.20;1.00;;;;;;5094725;28;20414;-58
2023/05/31 12:39:11;;;;;;;3.90;3.30;;;31.40;1.00;;;;;;5113176;28;20834;-57
2023/05/31 12:41:40;;;;;;;4.23;3.40;;;31.60;1.00;;;;;;5095622;28;20409;-54
2023/05/31 12:44:07;;;;;;;4.30;3.40;;;31.40;1.00;;;;;;5111097;28;20412;-56
2023/05/31 12:46:40;;;;;;;5.37;3.33;;;31.30;1.00;;;;;;5095351;28;20688;-56
2023/05/31 12:49:22;;;;;;;5.20;3.70;;;31.60;1.00;;;;;;5092592;28;20408;-57
2023/05/31 12:52:09;;;;;;;4.13;3.60;;;32.00;1.00;;;;;;5111262;28;20399;-57
2023/05/31 12:54:38;;;;;;;5.30;3.33;;;32.30;1.00;;;;;;5110187;28;20495;-56
2023/05/31 12:57:06;;;;;;;5.30;3.50;;;32.30;1.00;;;;;;5114879;28;20426;-58